Time;durP1;ratioP1;P1;durP2;ratioP2;P2;SDS_P1;SDS_P2;PMS_P1;PMS_P2;Temp;Humidity;BMP_temperature;BMP_pressure;BME280_temperature;BME280_humidity;BME280_pressure;Samples;Min_cycle;Max_cycle;Signal;HPM_P1;HPM_P2
2021/12/22 00:01:53;;;;;;;74.72;26.73;;;-1.20;99.90;;;;;;5076329;28;20111;-77
2021/12/22 00:04:25;;;;;;;68.78;25.88;;;-1.20;99.90;;;;;;5093456;28;20031;-77
2021/12/22 00:06:51;;;;;;;65.30;26.65;;;-1.20;99.90;;;;;;5091994;28;20028;-76
2021/12/22 00:09:17;;;;;;;70.03;27.23;;;-1.20;99.90;;;;;;5091781;28;20020;-77
2021/12/22 00:11:43;;;;;;;73.88;26.52;;;-1.20;99.90;;;;;;5092745;28;20107;-77
2021/12/22 00:14:11;;;;;;;76.75;28.05;;;-1.30;99.90;;;;;;5093085;28;20499;-77
2021/12/22 00:16:39;;;;;;;66.00;25.77;;;-1.30;99.90;;;;;;5093038;28;20032;-77
2021/12/22 00:19:05;;;;;;;58.33;24.13;;;-1.30;99.90;;;;;;5096167;28;20580;-77
2021/12/22 00:21:30;;;;;;;62.50;24.67;;;-1.30;99.90;;;;;;5113440;28;20032;-77
2021/12/22 00:23:56;;;;;;;59.17;25.60;;;-1.30;99.90;;;;;;5078320;28;20027;-77
2021/12/22 00:26:22;;;;;;;64.13;24.67;;;-1.30;99.90;;;;;;5112970;28;20072;-77
2021/12/22 00:28:49;;;;;;;66.63;25.85;;;-1.30;99.90;;;;;;5113053;28;20050;-77
2021/12/22 00:31:15;;;;;;;61.45;23.27;;;-1.30;99.90;;;;;;5112921;28;20527;-77
2021/12/22 00:33:48;;;;;;;54.13;23.38;;;-1.30;99.90;;;;;;5095145;28;20032;-77
2021/12/22 00:36:16;;;;;;;62.95;24.95;;;-1.30;99.90;;;;;;5103717;28;20046;-76
2021/12/22 00:38:41;;;;;;;60.05;23.83;;;-1.30;99.90;;;;;;5113070;28;20901;-77
2021/12/22 00:41:07;;;;;;;64.32;24.60;;;-1.30;99.90;;;;;;5095678;28;20039;-78
2021/12/22 00:43:33;;;;;;;59.28;21.98;;;-1.30;99.90;;;;;;5096355;28;20024;-78
2021/12/22 00:45:58;;;;;;;65.45;23.73;;;-1.40;99.90;;;;;;5096381;28;20410;-78
2021/12/22 00:48:24;;;;;;;55.80;22.05;;;-1.40;99.90;;;;;;5114254;28;20028;-79
2021/12/22 00:50:50;;;;;;;58.25;22.33;;;-1.40;99.90;;;;;;5096168;28;20039;-79
2021/12/22 00:53:16;;;;;;;59.92;23.13;;;-1.40;99.90;;;;;;5095834;28;20027;-79
2021/12/22 00:55:42;;;;;;;60.42;21.88;;;-1.40;99.90;;;;;;5112351;28;20047;-79
2021/12/22 00:58:08;;;;;;;54.22;21.05;;;-1.40;99.90;;;;;;5092063;28;20507;-79
2021/12/22 01:00:34;;;;;;;46.90;21.27;;;-1.50;99.90;;;;;;5092166;28;20028;-79
2021/12/22 01:03:00;;;;;;;55.58;22.58;;;-1.50;99.90;;;;;;5093646;28;20058;-79
2021/12/22 01:05:25;;;;;;;51.35;22.40;;;-1.50;99.90;;;;;;5094235;28;20072;-79
2021/12/22 01:07:52;;;;;;;53.22;21.10;;;-1.50;99.90;;;;;;5077565;28;20118;-79
2021/12/22 01:10:24;;;;;;;53.17;21.33;;;-1.50;99.90;;;;;;5078277;28;20046;-79
2021/12/22 01:12:53;;;;;;;45.30;19.92;;;-1.60;99.90;;;;;;5078908;28;20032;-79
2021/12/22 01:15:19;;;;;;;57.90;20.92;;;-1.60;99.90;;;;;;5114118;28;20020;-79
2021/12/22 01:17:48;;;;;;;49.80;20.67;;;-1.60;99.90;;;;;;5095556;28;20040;-79
2021/12/22 01:20:24;;;;;;;;;;;-1.60;99.90;;;;;;5097248;28;20506;-79
2021/12/22 01:22:51;;;;;;;49.47;20.90;;;-1.60;99.90;;;;;;5113443;28;19903;-79
2021/12/22 01:25:20;;;;;;;45.83;20.73;;;-1.70;99.90;;;;;;5107559;28;20110;-79
2021/12/22 01:27:46;;;;;;;46.80;20.38;;;-1.70;99.90;;;;;;5095413;28;20020;-79
2021/12/22 01:30:20;;;;;;;50.97;20.95;;;-1.70;99.90;;;;;;5094728;28;20046;-79
2021/12/22 01:32:46;;;;;;;43.70;19.15;;;-1.70;99.90;;;;;;5112373;28;20036;-79
2021/12/22 01:35:17;;;;;;;45.65;20.05;;;-1.70;99.90;;;;;;5094107;28;20028;-79
2021/12/22 01:37:42;;;;;;;47.65;19.77;;;-1.70;99.90;;;;;;5093615;28;20043;-79
2021/12/22 01:40:09;;;;;;;49.25;19.45;;;-1.70;99.90;;;;;;5112801;28;20074;-79
2021/12/22 01:42:35;;;;;;;46.55;17.83;;;-1.70;99.90;;;;;;5094764;28;20502;-79
2021/12/22 01:50:43;;;;;;;46.25;17.58;;;-1.70;99.90;;;;;;5111599;28;20383;-75
2021/12/22 01:53:21;;;;;;;45.47;18.45;;;-1.70;99.90;;;;;;5111823;28;20023;-75
2021/12/22 01:55:59;;;;;;;40.05;17.27;;;-1.70;99.90;;;;;;5093910;28;20027;-75
2021/12/22 01:58:35;;;;;;;40.42;16.85;;;-1.70;99.90;;;;;;5097252;28;20023;-77
2021/12/22 02:01:02;;;;;;;48.85;18.80;;;-1.70;99.90;;;;;;5109854;28;20103;-78
2021/12/22 02:03:28;;;;;;;44.78;18.27;;;-1.70;99.90;;;;;;5111377;28;20039;-78
2021/12/22 02:05:53;;;;;;;46.33;17.67;;;-1.70;99.90;;;;;;5110254;28;20562;-77
2021/12/22 02:08:19;;;;;;;39.88;16.48;;;-1.70;99.90;;;;;;5091854;28;20472;-78
2021/12/22 02:10:47;;;;;;;39.40;16.73;;;-1.70;99.90;;;;;;5111887;28;20040;-78
2021/12/22 02:13:19;;;;;;;36.77;15.60;;;-1.70;99.90;;;;;;5095631;28;20051;-79
2021/12/22 02:15:46;;;;;;;43.33;17.63;;;-1.70;99.90;;;;;;5113250;28;20493;-79
2021/12/22 02:18:18;;;;;;;38.15;16.08;;;-1.80;99.90;;;;;;5113221;28;20122;-79
2021/12/22 02:20:46;;;;;;;40.78;16.63;;;-1.70;99.90;;;;;;5112739;28;20036;-79
2021/12/22 02:23:12;;;;;;;39.63;15.60;;;-1.80;99.90;;;;;;5113033;28;20034;-79
2021/12/22 02:25:46;;;;;;;38.90;16.20;;;-1.80;99.90;;;;;;5095210;28;20032;-79
2021/12/22 02:28:18;;;;;;;43.10;16.35;;;-1.80;99.90;;;;;;5077399;28;20388;-79
2021/12/22 02:30:44;;;;;;;34.55;15.80;;;-1.80;99.90;;;;;;5110756;28;20032;-78
2021/12/22 02:35:53;;;;;;;31.52;13.10;;;-1.90;99.90;;;;;;5109231;28;20028;-78
2021/12/22 02:38:19;;;;;;;35.90;14.45;;;-1.90;99.90;;;;;;5077687;28;20403;-78
2021/12/22 02:40:48;;;;;;;30.23;14.10;;;-1.80;99.90;;;;;;5072090;28;20025;-78
2021/12/22 02:43:20;;;;;;;;;;;-1.90;99.90;;;;;;5090342;28;20397;-78
2021/12/22 02:45:46;;;;;;;27.02;11.70;;;-1.80;99.90;;;;;;5110800;28;19912;-78
2021/12/22 02:48:12;;;;;;;27.27;11.50;;;-1.90;99.90;;;;;;5093020;28;20076;-79
2021/12/22 02:50:37;;;;;;;26.40;11.60;;;-1.90;99.90;;;;;;5112390;28;20117;-79
2021/12/22 02:53:11;;;;;;;28.55;12.38;;;-1.80;99.90;;;;;;5086208;28;20046;-79
2021/12/22 02:55:47;;;;;;;25.67;10.60;;;-1.80;99.90;;;;;;5112619;28;20031;-79
2021/12/22 03:01:23;;;;;;;24.27;11.25;;;-1.80;99.90;;;;;;5116215;28;20028;-79
2021/12/22 03:04:09;;;;;;;27.65;11.18;;;-1.80;99.90;;;;;;5097975;28;20028;-79
2021/12/22 03:06:40;;;;;;;26.48;11.02;;;-1.80;99.90;;;;;;5115976;28;20059;-79
2021/12/22 03:09:22;;;;;;;27.20;11.30;;;-1.80;99.90;;;;;;5098861;28;20719;-79
2021/12/22 03:11:49;;;;;;;27.17;10.68;;;-1.80;99.90;;;;;;5097522;28;20027;-79
2021/12/22 03:14:15;;;;;;;25.40;10.15;;;-1.80;99.90;;;;;;5115275;28;20036;-79
2021/12/22 03:16:42;;;;;;;20.40;9.73;;;-1.80;99.90;;;;;;5077114;28;20031;-79
2021/12/22 03:19:13;;;;;;;21.85;10.18;;;-1.80;99.90;;;;;;5093607;28;20131;-79
2021/12/22 03:21:41;;;;;;;29.42;10.40;;;-1.80;99.90;;;;;;5112162;28;20031;-79
2021/12/22 03:24:07;;;;;;;21.80;9.20;;;-1.80;99.90;;;;;;5095201;28;20028;-79
2021/12/22 03:26:33;;;;;;;19.65;10.10;;;-1.80;99.90;;;;;;5093693;28;20277;-79
2021/12/22 03:28:59;;;;;;;26.75;10.88;;;-1.80;99.90;;;;;;5112464;28;20039;-77
2021/12/22 03:31:24;;;;;;;22.25;9.93;;;-1.80;99.90;;;;;;5094797;28;20044;-77
2021/12/22 03:33:50;;;;;;;24.02;10.05;;;-1.90;99.90;;;;;;5096038;28;20031;-75
2021/12/22 03:36:16;;;;;;;21.00;9.23;;;-1.90;99.90;;;;;;5114526;28;20035;-75
2021/12/22 03:38:43;;;;;;;21.48;9.23;;;-1.90;99.90;;;;;;5114097;28;20375;-74
2021/12/22 03:41:08;;;;;;;26.92;10.38;;;-2.00;99.90;;;;;;5095880;28;20020;-75
2021/12/22 03:43:35;;;;;;;17.88;8.95;;;-2.00;99.90;;;;;;5078327;28;20035;-75
2021/12/22 03:46:02;;;;;;;19.88;9.27;;;-2.00;99.90;;;;;;5095333;28;20032;-75
2021/12/22 03:48:28;;;;;;;21.90;9.80;;;-2.00;99.90;;;;;;5112223;28;20031;-77
2021/12/22 03:50:55;;;;;;;21.85;9.68;;;-2.00;99.90;;;;;;5095192;28;20031;-77
2021/12/22 03:53:21;;;;;;;20.33;9.73;;;-2.00;99.90;;;;;;5095366;28;20036;-77
2021/12/22 03:55:46;;;;;;;25.02;9.00;;;-2.00;99.90;;;;;;5113654;28;20039;-77
2021/12/22 03:58:13;;;;;;;25.27;10.05;;;-2.00;99.90;;;;;;5077984;28;20040;-77
2021/12/22 04:00:41;;;;;;;19.45;9.48;;;-2.00;99.90;;;;;;5094895;28;20506;-77
2021/12/22 04:03:15;;;;;;;19.60;8.97;;;-2.00;99.90;;;;;;5113136;28;20031;-77
2021/12/22 04:05:41;;;;;;;25.05;10.27;;;-2.00;99.90;;;;;;5110768;28;20023;-77
2021/12/22 04:08:06;;;;;;;22.73;9.60;;;-2.00;99.90;;;;;;5095516;28;20395;-77
2021/12/22 04:10:32;;;;;;;23.60;10.32;;;-2.10;99.90;;;;;;5112404;28;20382;-75
2021/12/22 04:12:57;;;;;;;22.17;10.15;;;-2.10;99.90;;;;;;5095370;28;20403;-74
2021/12/22 04:15:26;;;;;;;24.20;10.32;;;-2.10;99.90;;;;;;5095489;28;20023;-75
2021/12/22 04:17:53;;;;;;;20.05;9.50;;;-2.10;99.90;;;;;;5113704;28;20638;-74
2021/12/22 04:20:19;;;;;;;26.92;10.70;;;-2.10;99.90;;;;;;5113209;28;20047;-75
2021/12/22 04:22:45;;;;;;;26.92;11.25;;;-2.10;99.90;;;;;;5095551;28;20468;-75
2021/12/22 04:25:13;;;;;;;23.08;10.20;;;-2.10;99.90;;;;;;5095500;28;20058;-74
2021/12/22 04:27:38;;;;;;;28.63;10.95;;;-2.20;99.90;;;;;;5095545;28;20032;-75
2021/12/22 04:30:06;;;;;;;22.95;10.27;;;-2.20;99.90;;;;;;5078472;28;20039;-75
2021/12/22 04:32:32;;;;;;;22.35;10.73;;;-2.20;99.90;;;;;;5094934;28;20499;-74
2021/12/22 04:34:57;;;;;;;22.90;11.27;;;-2.20;99.90;;;;;;5078187;28;20046;-75
2021/12/22 04:37:23;;;;;;;22.88;10.52;;;-2.30;99.90;;;;;;5112936;28;20480;-75
2021/12/22 04:39:49;;;;;;;25.60;11.43;;;-2.30;99.90;;;;;;5096245;28;20053;-77
2021/12/22 04:42:16;;;;;;;20.30;9.93;;;-2.30;99.90;;;;;;5095990;28;20032;-79
2021/12/22 04:44:42;;;;;;;30.90;11.52;;;-2.30;99.90;;;;;;5114514;28;20027;-79
2021/12/22 04:47:07;;;;;;;23.77;10.80;;;-2.40;99.90;;;;;;5096498;28;20038;-79
2021/12/22 04:49:33;;;;;;;30.77;10.35;;;-2.40;99.90;;;;;;5075364;28;20020;-79
2021/12/22 04:52:00;;;;;;;26.42;10.35;;;-2.40;99.90;;;;;;5078893;28;20020;-79
2021/12/22 04:56:52;;;;;;;21.42;9.73;;;-2.40;99.90;;;;;;5113030;28;20031;-75
2021/12/22 04:59:18;;;;;;;24.45;11.13;;;-2.40;99.90;;;;;;5094426;28;20080;-75
2021/12/22 05:01:44;;;;;;;25.80;10.35;;;-2.40;99.90;;;;;;5094174;28;20084;-75
2021/12/22 05:04:09;;;;;;;26.25;9.73;;;-2.40;99.90;;;;;;5112843;28;20449;-74
2021/12/22 05:06:35;;;;;;;23.27;10.88;;;-2.40;99.90;;;;;;5094574;28;20061;-75
2021/12/22 05:09:02;;;;;;;18.42;9.13;;;-2.50;99.90;;;;;;5112900;28;20080;-74
2021/12/22 05:11:28;;;;;;;18.50;8.90;;;-2.50;99.90;;;;;;5093880;28;20097;-74
2021/12/22 05:13:53;;;;;;;21.95;9.63;;;-2.50;99.90;;;;;;5073271;28;20123;-75
2021/12/22 05:16:19;;;;;;;24.65;10.52;;;-2.40;99.90;;;;;;5094412;28;20031;-74
2021/12/22 05:18:51;;;;;;;24.05;9.85;;;-2.40;99.90;;;;;;5093888;28;20376;-74
2021/12/22 05:21:21;;;;;;;20.55;10.18;;;-2.40;99.90;;;;;;5112352;28;20085;-74
2021/12/22 05:23:50;;;;;;;22.60;9.10;;;-2.40;99.90;;;;;;5093942;28;20043;-75
2021/12/22 05:26:17;;;;;;;21.73;9.07;;;-2.30;99.90;;;;;;5077656;28;20024;-75
2021/12/22 05:28:43;;;;;;;19.15;9.25;;;-2.30;99.90;;;;;;5110517;28;20106;-75
2021/12/22 05:31:09;;;;;;;22.50;10.07;;;-2.40;99.90;;;;;;5094616;28;20106;-75
2021/12/22 05:33:35;;;;;;;20.38;10.68;;;-2.30;99.90;;;;;;5111717;28;20027;-75
2021/12/22 05:36:00;;;;;;;18.92;9.40;;;-2.30;99.90;;;;;;5094161;28;20464;-75
2021/12/22 05:38:26;;;;;;;23.42;10.43;;;-2.30;99.90;;;;;;5076536;28;20031;-75
2021/12/22 05:40:52;;;;;;;18.98;9.02;;;-2.30;99.90;;;;;;5112636;28;20027;-75
2021/12/22 05:43:17;;;;;;;24.77;9.60;;;-2.40;99.90;;;;;;5093886;28;20062;-75
2021/12/22 05:45:43;;;;;;;24.88;10.27;;;-2.40;99.90;;;;;;5094412;28;20035;-74
2021/12/22 05:48:09;;;;;;;26.00;9.98;;;-2.40;99.90;;;;;;5091448;28;20074;-75
2021/12/22 05:50:35;;;;;;;19.40;9.02;;;-2.40;99.90;;;;;;5076396;28;20089;-75
2021/12/22 05:53:00;;;;;;;25.35;9.55;;;-2.40;99.90;;;;;;5092031;28;20043;-74
2021/12/22 05:55:26;;;;;;;20.90;9.25;;;-2.40;99.90;;;;;;5092451;28;20027;-74
2021/12/22 05:57:53;;;;;;;21.20;9.52;;;-2.40;99.90;;;;;;5093519;28;20039;-74
2021/12/22 06:00:19;;;;;;;21.73;9.27;;;-2.40;99.90;;;;;;5102998;28;20020;-75
2021/12/22 06:02:44;;;;;;;19.63;9.30;;;-2.40;99.90;;;;;;5074002;28;20032;-75
2021/12/22 06:05:10;;;;;;;27.02;10.05;;;-2.40;99.90;;;;;;5106693;28;20032;-75
2021/12/22 06:07:37;;;;;;;18.63;8.82;;;-2.40;99.90;;;;;;5111044;28;20112;-77
2021/12/22 06:10:04;;;;;;;22.73;9.55;;;-2.40;99.90;;;;;;5110590;28;20035;-77
2021/12/22 06:12:30;;;;;;;19.13;9.35;;;-2.40;99.90;;;;;;5107667;28;20051;-77
2021/12/22 06:14:55;;;;;;;17.83;8.55;;;-2.50;99.90;;;;;;5110568;28;20071;-77
2021/12/22 06:17:21;;;;;;;21.25;9.02;;;-2.50;99.90;;;;;;5091923;28;20502;-76
2021/12/22 06:19:47;;;;;;;17.65;8.93;;;-2.50;99.90;;;;;;5092757;28;20130;-77
2021/12/22 06:22:13;;;;;;;20.42;8.50;;;-2.40;99.90;;;;;;5092301;28;20487;-77
2021/12/22 06:24:38;;;;;;;22.50;9.65;;;-2.40;99.90;;;;;;5103828;28;20525;-77
2021/12/22 06:27:04;;;;;;;26.33;9.50;;;-2.40;99.90;;;;;;5092438;28;20034;-77
2021/12/22 06:29:30;;;;;;;17.00;8.30;;;-2.40;99.90;;;;;;5091512;28;20096;-77
2021/12/22 06:31:55;;;;;;;19.17;8.93;;;-2.40;99.90;;;;;;5091975;28;20043;-77
2021/12/22 06:34:21;;;;;;;19.83;8.82;;;-2.50;99.90;;;;;;5094490;28;20492;-77
2021/12/22 06:36:47;;;;;;;22.83;9.25;;;-2.50;99.90;;;;;;5096384;28;20480;-77
2021/12/22 06:39:14;;;;;;;28.45;8.82;;;-2.40;99.90;;;;;;5113941;28;20027;-77
2021/12/22 06:41:40;;;;;;;20.10;8.70;;;-2.40;99.90;;;;;;5116498;28;20123;-77
2021/12/22 06:44:06;;;;;;;20.17;8.82;;;-2.40;99.90;;;;;;5080781;28;20098;-78
2021/12/22 06:46:32;;;;;;;19.00;8.80;;;-2.40;99.90;;;;;;5096041;28;20038;-77
2021/12/22 06:48:58;;;;;;;15.70;8.90;;;-2.40;99.90;;;;;;5079695;28;20028;-77
2021/12/22 06:51:23;;;;;;;19.52;8.73;;;-2.40;99.90;;;;;;5114294;28;20492;-77
2021/12/22 06:53:49;;;;;;;16.40;7.85;;;-2.40;99.90;;;;;;5096171;28;20423;-77
2021/12/22 06:56:14;;;;;;;18.15;8.77;;;-2.40;99.90;;;;;;5096097;28;20629;-78
2021/12/22 06:58:40;;;;;;;19.15;9.02;;;-2.40;99.90;;;;;;5114226;28;20066;-78
2021/12/22 07:01:06;;;;;;;22.65;8.80;;;-2.40;99.90;;;;;;5095724;28;20127;-77
2021/12/22 07:03:31;;;;;;;18.70;8.50;;;-2.40;99.90;;;;;;5080847;28;20039;-78
2021/12/22 07:05:57;;;;;;;20.85;8.60;;;-2.50;99.90;;;;;;5081175;28;20020;-77
2021/12/22 07:08:22;;;;;;;20.00;8.52;;;-2.50;99.90;;;;;;5097754;28;20035;-78
2021/12/22 07:10:48;;;;;;;22.42;9.13;;;-2.50;99.90;;;;;;5116031;28;20032;-77
2021/12/22 07:13:14;;;;;;;18.58;8.60;;;-2.60;99.90;;;;;;5115970;28;20039;-77
2021/12/22 07:15:42;;;;;;;18.45;8.10;;;-2.60;99.90;;;;;;5097919;28;20556;-78
2021/12/22 07:18:08;;;;;;;16.52;8.05;;;-2.60;99.90;;;;;;5097696;28;20035;-77
2021/12/22 07:20:35;;;;;;;20.33;8.73;;;-2.60;99.90;;;;;;5115603;28;20399;-78
2021/12/22 07:23:00;;;;;;;20.95;7.88;;;-2.60;99.90;;;;;;5097455;28;20024;-78
2021/12/22 07:25:26;;;;;;;16.42;8.18;;;-2.70;99.90;;;;;;5080696;28;20024;-77
2021/12/22 07:27:52;;;;;;;26.60;8.52;;;-2.70;99.90;;;;;;5097253;28;20024;-77
2021/12/22 07:30:17;;;;;;;19.58;8.98;;;-2.70;99.90;;;;;;5115309;28;20030;-77
2021/12/22 07:32:43;;;;;;;20.95;8.40;;;-2.70;99.90;;;;;;5097168;28;20019;-77
2021/12/22 07:35:15;;;;;;;17.98;8.57;;;-2.80;99.90;;;;;;5097092;28;20429;-77
2021/12/22 07:37:40;;;;;;;21.27;8.27;;;-2.80;99.90;;;;;;5113253;28;20093;-77
2021/12/22 07:40:09;;;;;;;24.98;8.45;;;-2.80;99.90;;;;;;5097616;28;20429;-80
2021/12/22 07:42:35;;;;;;;21.60;8.40;;;-2.80;99.90;;;;;;5101909;28;20028;-80
2021/12/22 07:45:01;;;;;;;17.40;8.15;;;-2.80;99.90;;;;;;5111328;28;20127;-80
2021/12/22 07:47:27;;;;;;;19.05;8.20;;;-2.80;99.90;;;;;;5097120;28;20403;-80
2021/12/22 07:49:53;;;;;;;25.95;9.55;;;-2.80;99.90;;;;;;5097274;28;20040;-80
2021/12/22 07:52:18;;;;;;;23.95;9.50;;;-2.80;99.90;;;;;;5115565;28;20160;-77
2021/12/22 07:54:44;;;;;;;25.80;9.35;;;-2.80;99.90;;;;;;5115498;28;20055;-78
2021/12/22 07:57:10;;;;;;;18.25;8.82;;;-2.80;99.90;;;;;;5097240;28;20028;-77
2021/12/22 07:59:35;;;;;;;18.92;9.30;;;-2.80;99.90;;;;;;5079790;28;20435;-77
2021/12/22 08:02:02;;;;;;;18.98;8.65;;;-2.80;99.90;;;;;;5104624;28;20024;-77
2021/12/22 08:04:28;;;;;;;20.25;9.10;;;-2.70;99.90;;;;;;5076789;28;20039;-77
2021/12/22 08:06:54;;;;;;;25.02;9.13;;;-2.70;99.90;;;;;;5094735;28;20028;-77
2021/12/22 08:09:25;;;;;;;22.17;9.57;;;-2.70;99.90;;;;;;5078744;28;20106;-77
2021/12/22 08:12:04;;;;;;;20.52;8.30;;;-2.70;99.90;;;;;;5096397;28;20496;-78
2021/12/22 08:14:31;;;;;;;18.58;9.20;;;-2.70;99.90;;;;;;5108579;28;20035;-77
2021/12/22 08:16:57;;;;;;;18.45;9.35;;;-2.70;99.90;;;;;;5109251;28;20051;-77
2021/12/22 08:19:22;;;;;;;27.60;9.80;;;-2.70;99.90;;;;;;5093011;28;20400;-77
2021/12/22 08:21:48;;;;;;;16.23;8.57;;;-2.60;99.90;;;;;;5094789;28;20099;-77
2021/12/22 08:24:14;;;;;;;21.58;8.65;;;-2.60;99.90;;;;;;5058711;28;20032;-77
2021/12/22 08:26:40;;;;;;;24.52;9.23;;;-2.60;99.90;;;;;;5075600;28;20039;-78
2021/12/22 08:29:05;;;;;;;22.98;9.60;;;-2.60;99.90;;;;;;5070828;28;20036;-77
2021/12/22 08:31:31;;;;;;;16.17;8.95;;;-2.50;99.90;;;;;;5096462;28;20028;-77
2021/12/22 08:33:57;;;;;;;20.92;9.25;;;-2.50;99.90;;;;;;5085539;28;20028;-77
2021/12/22 08:39:13;;;;;;;19.58;9.23;;;-2.40;99.90;;;;;;5093694;28;20400;-77
2021/12/22 08:41:40;;;;;;;23.05;10.10;;;-2.30;99.90;;;;;;5075897;28;20028;-77
2021/12/22 08:44:11;;;;;;;21.75;8.68;;;-2.30;99.90;;;;;;5093363;28;20119;-77
2021/12/22 08:46:42;;;;;;;28.45;9.93;;;-2.30;99.90;;;;;;5078029;28;20103;-77
2021/12/22 08:49:08;;;;;;;19.92;9.68;;;-2.20;99.90;;;;;;5091983;28;20472;-77
2021/12/22 08:51:34;;;;;;;17.35;9.27;;;-2.20;99.90;;;;;;5092241;28;20099;-77
2021/12/22 08:54:01;;;;;;;19.45;9.40;;;-2.20;99.90;;;;;;5093305;28;20487;-77
2021/12/22 08:56:28;;;;;;;17.35;9.80;;;-2.10;99.90;;;;;;5092752;28;20032;-77
2021/12/22 08:58:54;;;;;;;19.98;10.10;;;-2.10;99.90;;;;;;5095100;28;20028;-77
2021/12/22 09:01:21;;;;;;;22.27;10.82;;;-2.00;99.90;;;;;;5112875;28;20384;-77
2021/12/22 09:03:47;;;;;;;17.88;9.25;;;-2.00;99.90;;;;;;5113234;28;20023;-77
2021/12/22 09:06:14;;;;;;;20.42;9.50;;;-1.90;99.90;;;;;;5107071;28;20024;-77
2021/12/22 09:08:41;;;;;;;23.45;9.25;;;-1.80;99.90;;;;;;5097535;28;20048;-77
2021/12/22 09:11:06;;;;;;;21.77;10.32;;;-1.80;99.90;;;;;;5093089;28;20028;-77
2021/12/22 09:13:35;;;;;;;21.30;10.63;;;-1.70;99.90;;;;;;5074426;28;20065;-77
2021/12/22 09:16:01;;;;;;;20.02;10.02;;;-1.60;99.90;;;;;;5102656;28;20549;-77
2021/12/22 09:18:26;;;;;;;19.20;9.60;;;-1.50;99.90;;;;;;5074823;28;20048;-77
2021/12/22 09:20:52;;;;;;;20.55;10.43;;;-1.50;99.90;;;;;;5057934;28;20509;-77
2021/12/22 09:23:18;;;;;;;20.48;9.95;;;-1.40;99.90;;;;;;5057558;28;20028;-77
2021/12/22 09:25:45;;;;;;;23.92;10.63;;;-1.40;99.90;;;;;;5074123;28;20036;-77
2021/12/22 09:28:12;;;;;;;24.48;11.18;;;-1.30;99.90;;;;;;5092059;28;20031;-77
2021/12/22 09:30:40;;;;;;;23.98;10.25;;;-1.30;99.90;;;;;;5101845;28;20101;-77
2021/12/22 09:33:08;;;;;;;23.70;10.20;;;-1.30;99.90;;;;;;5109405;28;20588;-77
2021/12/22 09:35:34;;;;;;;23.05;11.45;;;-1.20;99.90;;;;;;5082971;28;20035;-77
2021/12/22 09:38:00;;;;;;;21.17;10.38;;;-1.20;99.90;;;;;;5094120;28;20019;-77
2021/12/22 09:40:26;;;;;;;21.90;9.45;;;-1.10;99.90;;;;;;5093074;28;20019;-77
2021/12/22 09:42:52;;;;;;;16.98;10.23;;;-1.00;99.90;;;;;;5108847;28;20039;-77
2021/12/22 09:45:19;;;;;;;24.63;11.85;;;-1.00;99.90;;;;;;5092228;28;20454;-77
2021/12/22 09:53:05;;;;;;;23.38;11.57;;;-0.80;99.90;;;;;;5113195;28;20495;-77
2021/12/22 09:55:34;;;;;;;22.08;10.85;;;-0.80;99.90;;;;;;5111942;28;20040;-77
2021/12/22 09:58:04;;;;;;;18.75;10.75;;;-0.70;99.90;;;;;;5094996;28;20047;-77
2021/12/22 10:00:35;;;;;;;25.45;10.50;;;-0.60;99.90;;;;;;5091024;28;20064;-77
2021/12/22 10:03:01;;;;;;;19.63;11.57;;;-0.50;99.90;;;;;;5104584;28;20023;-78
2021/12/22 10:05:27;;;;;;;21.77;11.82;;;-0.50;99.90;;;;;;5093948;28;20661;-77
2021/12/22 10:08:11;;;;;;;25.15;12.05;;;-0.40;99.90;;;;;;5077161;28;20028;-78
2021/12/22 10:10:40;;;;;;;22.30;11.38;;;-0.30;99.90;;;;;;5096195;28;20058;-78
2021/12/22 10:13:07;;;;;;;32.80;12.18;;;-0.30;99.90;;;;;;5113613;28;20061;-77
2021/12/22 10:15:34;;;;;;;20.08;11.23;;;-0.30;99.90;;;;;;5095641;28;20115;-77
2021/12/22 10:18:12;;;;;;;25.98;12.45;;;-0.20;99.90;;;;;;5115153;28;20031;-77
2021/12/22 10:20:38;;;;;;;25.75;11.93;;;-0.10;99.90;;;;;;5116341;28;20039;-77
2021/12/22 10:23:20;;;;;;;19.73;10.80;;;0.00;99.90;;;;;;5116291;28;20019;-78
2021/12/22 10:25:55;;;;;;;22.88;11.35;;;0.00;99.80;;;;;;5116316;28;20027;-78
2021/12/22 10:28:21;;;;;;;25.42;11.75;;;0.00;99.70;;;;;;5116813;28;20054;-77
2021/12/22 10:30:50;;;;;;;24.70;12.57;;;0.10;99.70;;;;;;5098646;28;20035;-77
2021/12/22 10:33:18;;;;;;;29.88;12.60;;;0.10;99.70;;;;;;5107568;28;20035;-78
2021/12/22 10:35:47;;;;;;;26.73;11.67;;;0.20;99.70;;;;;;5112886;28;20015;-78
2021/12/22 10:38:15;;;;;;;24.67;11.73;;;0.20;99.90;;;;;;5115328;28;20320;-78
2021/12/22 10:40:44;;;;;;;24.08;12.02;;;0.30;99.70;;;;;;5114637;28;20031;-77
2021/12/22 10:49:21;;;;;;;24.08;12.60;;;0.50;99.60;;;;;;5097715;28;20028;-77
2021/12/22 10:51:59;;;;;;;24.80;12.05;;;0.50;99.80;;;;;;5092640;28;20050;-77
2021/12/22 10:54:37;;;;;;;25.25;12.10;;;0.60;99.50;;;;;;5097743;28;20430;-77
2021/12/22 10:57:10;;;;;;;24.88;12.70;;;0.70;99.40;;;;;;5097819;28;20028;-77
2021/12/22 10:59:45;;;;;;;26.48;12.82;;;0.70;99.30;;;;;;5104699;28;20839;-77
2021/12/22 11:02:12;;;;;;;23.95;12.23;;;0.70;99.30;;;;;;5083807;28;20032;-77
2021/12/22 11:04:43;;;;;;;28.40;12.85;;;0.70;99.30;;;;;;5110892;28;20027;-77
2021/12/22 11:07:21;;;;;;;24.20;11.35;;;0.80;99.30;;;;;;5081915;28;20027;-77
2021/12/22 11:15:42;;;;;;;27.90;12.88;;;0.90;99.20;;;;;;5096889;28;20020;-77
2021/12/22 11:18:29;;;;;;;29.77;13.60;;;1.00;99.20;;;;;;5106281;28;20030;-78
2021/12/22 11:21:08;;;;;;;23.98;13.50;;;1.10;99.20;;;;;;5098470;28;20078;-77
2021/12/22 11:23:35;;;;;;;27.48;12.88;;;1.10;99.10;;;;;;5077582;28;20103;-77
2021/12/22 11:26:01;;;;;;;22.95;12.57;;;1.10;99.10;;;;;;5059428;28;20028;-77
2021/12/22 11:28:26;;;;;;;22.17;12.43;;;1.10;99.10;;;;;;5106435;28;20111;-77
2021/12/22 11:30:52;;;;;;;23.73;12.13;;;1.20;99.10;;;;;;5050076;28;20028;-78
2021/12/22 11:33:18;;;;;;;29.30;11.43;;;1.20;99.10;;;;;;5076903;28;20477;-77
2021/12/22 11:35:44;;;;;;;24.08;12.07;;;1.20;99.00;;;;;;5096611;28;20483;-77
2021/12/22 11:38:10;;;;;;;29.15;12.02;;;1.30;99.00;;;;;;5097165;28;20051;-78
2021/12/22 11:40:36;;;;;;;22.52;12.45;;;1.30;98.90;;;;;;5096479;28;20032;-78
2021/12/22 11:43:02;;;;;;;25.70;13.27;;;1.40;98.90;;;;;;5080342;28;20084;-77
2021/12/22 11:45:28;;;;;;;23.70;12.57;;;1.50;98.80;;;;;;5077032;28;20374;-77
2021/12/22 11:47:57;;;;;;;29.60;12.80;;;1.80;98.50;;;;;;5096872;28;20438;-77
2021/12/22 11:50:29;;;;;;;24.00;11.90;;;2.30;97.30;;;;;;5115025;28;20031;-77
2021/12/22 11:53:02;;;;;;;25.92;11.77;;;3.00;95.40;;;;;;5097292;28;20040;-77
2021/12/22 11:55:42;;;;;;;23.95;11.55;;;3.60;93.70;;;;;;5093385;28;20395;-80
2021/12/22 11:58:27;;;;;;;;;;;3.90;92.90;;;;;;5076337;28;20059;-80
2021/12/22 12:00:55;;;;;;;21.88;11.02;;;4.10;92.30;;;;;;5101960;28;19988;-82
2021/12/22 12:03:28;;;;;;;19.77;10.30;;;4.70;90.90;;;;;;5110622;28;20034;-81
2021/12/22 12:06:06;;;;;;;16.88;10.05;;;5.10;90.00;;;;;;5094790;28;20024;-81
2021/12/22 12:08:58;;;;;;;24.15;10.35;;;5.30;89.10;;;;;;5113830;28;20023;-81
2021/12/22 12:11:35;;;;;;;19.00;10.23;;;5.30;88.70;;;;;;5093719;28;20381;-81
2021/12/22 12:14:10;;;;;;;21.00;9.68;;;5.40;88.10;;;;;;5082938;28;20563;-81
